LFMD/CEQ METAR and TAF weather

Enter ICAO airport designator
Station Type Date Time Source
LFMD METAR 2021/09/24 03:00 UTC NOAA

LFMD 240300Z AUTO 01004KT 340V040 CAVOK 15/12 Q1018 NOSIG


Station Type Date Time Source
LFMD Decoded METAR 2021/09/24 03:00 UTC NOAA

Cannes, France (LFMD) 43-33N 006-57E 9M
Sep 23, 2021 - 11:00 PM EDT / 2021.09.24 0300 UTC
Wind: from the N (010 degrees) at 5 MPH (4 KT) (direction variable):0
Visibility: greater than 7 mile(s):0
Temperature: 59 F (15 C)
Dew Point: 53 F (12 C)
Relative Humidity: 82%
Pressure (altimeter): 30.06 in. Hg (1018 hPa)
ob: LFMD 240300Z AUTO 01004KT 340V040 CAVOK 15/12 Q1018 NOSIG
cycle: 3

Station Type Date Time Source
LFMD TAF 2021/09/24 03:42 UTC NOAA

TAF LFMD 240200Z 2403/2503 VRB03KT CAVOK
BECMG 2409/2411 14005KT
BECMG 2418/2420 36005KT

Example: see airport list